Breezy Point, New York
Current Conditions -  °F | °C
As of 11:51 PM on Wednesday 22 Oct 2014 (Local Time) from KJFK Reporting Station
Overcast Overcast  
Wind Chill: 52°   Ceiling: 1500
Heat Index: 52°   Visibility: 10mi
Dew Point: 47°   Wind: 22mph
Humidity: 83%   Direction: 10°N
Pressure: 29.72"   Gusts: 35mph
Location:  40.56°N, 73.93°W
Report Text: KJFK 230351Z 01019G30KT 10SM OVC015 11/08 A2972 RMK AO2 PK WND 02030/0347 RAE49 SLP063 P0004 T01110083
Loading
Personal Weather Stations






























Interactive Weather Map
Tropical Storm Tracking
New forecast layout! Learn more

10-Day Weather Forecast

Advertisements
Track Severe Weather on mobile